Time;durP1;ratioP1;P1;durP2;ratioP2;P2;SDS_P1;SDS_P2;PMS_P1;PMS_P2;Temp;Humidity;BMP_temperature;BMP_pressure;BME280_temperature;BME280_humidity;BME280_pressure;Samples;Min_cycle;Max_cycle;Signal;HPM_P1;HPM_P2
2022/08/19 00:01:09;;;;;;;7.45;4.35;;;20.30;99.90;;;;;;5075722;28;20172;-85
2022/08/19 00:03:35;;;;;;;5.93;4.00;;;;;;;;;;5074307;28;20179;-85
2022/08/19 00:06:01;;;;;;;5.68;4.63;;;20.30;99.90;;;;;;5041188;28;20264;-84
2022/08/19 00:08:27;;;;;;;6.25;4.15;;;20.20;99.90;;;;;;5041242;28;20274;-85
2022/08/19 00:10:52;;;;;;;7.60;4.68;;;20.30;99.90;;;;;;5075536;28;20179;-85
2022/08/19 00:13:18;;;;;;;8.85;4.40;;;20.20;99.90;;;;;;5057832;28;20186;-85
2022/08/19 00:15:44;;;;;;;6.40;4.55;;;20.20;99.90;;;;;;5075603;28;20274;-85
2022/08/19 00:18:10;;;;;;;7.32;4.55;;;20.20;99.90;;;;;;5057878;28;20179;-85
2022/08/19 00:20:39;;;;;;;8.60;4.78;;;20.20;99.90;;;;;;5075725;28;20187;-86
2022/08/19 00:23:05;;;;;;;6.10;4.25;;;20.10;99.90;;;;;;5075443;28;20197;-85
2022/08/19 00:25:31;;;;;;;5.55;4.13;;;20.10;99.90;;;;;;5075699;28;20260;-85
2022/08/19 00:27:58;;;;;;;5.82;4.03;;;20.10;99.90;;;;;;5075218;28;20564;-85
2022/08/19 00:30:23;;;;;;;6.57;4.35;;;20.10;99.90;;;;;;5075458;28;20221;-85
2022/08/19 00:32:50;;;;;;;8.98;5.13;;;20.10;99.90;;;;;;5040398;28;20180;-87
2022/08/19 00:35:16;;;;;;;8.35;5.22;;;20.10;99.90;;;;;;5075509;28;20232;-85
2022/08/19 00:37:43;;;;;;;5.85;4.70;;;20.10;99.90;;;;;;5057628;28;20251;-84
2022/08/19 00:40:10;;;;;;;6.60;4.75;;;20.10;99.90;;;;;;5073985;28;20175;-85
2022/08/19 00:42:36;;;;;;;10.15;4.95;;;20.10;99.90;;;;;;5074911;28;20223;-85
2022/08/19 00:45:08;;;;;;;7.25;4.57;;;20.10;99.90;;;;;;5074858;28;20175;-85
2022/08/19 00:47:34;;;;;;;7.55;4.75;;;20.00;99.90;;;;;;5075482;28;20211;-85
2022/08/19 00:49:59;;;;;;;5.65;4.65;;;20.00;99.90;;;;;;5074605;28;20576;-85
2022/08/19 00:52:36;;;;;;;6.82;4.63;;;20.00;99.90;;;;;;5074751;28;20180;-85
2022/08/19 00:55:06;;;;;;;5.50;3.97;;;19.90;99.90;;;;;;5075130;28;20159;-85
2022/08/19 00:57:39;;;;;;;5.28;4.10;;;19.90;99.90;;;;;;5057107;28;20175;-85
2022/08/19 01:00:12;;;;;;;9.27;5.03;;;19.80;99.90;;;;;;5074819;28;20166;-85
2022/08/19 01:02:38;;;;;;;6.45;4.03;;;19.80;99.90;;;;;;5075067;28;20178;-85
2022/08/19 01:05:09;;;;;;;5.38;4.13;;;19.80;99.90;;;;;;5074750;28;20183;-85
2022/08/19 01:07:38;;;;;;;6.68;4.32;;;19.70;99.90;;;;;;5056984;28;20575;-85
2022/08/19 01:10:07;;;;;;;8.30;4.75;;;19.70;99.90;;;;;;5074507;28;20171;-85
2022/08/19 01:12:33;;;;;;;7.30;4.72;;;19.70;99.90;;;;;;5074503;28;20187;-85
2022/08/19 01:14:59;;;;;;;6.05;4.32;;;19.70;99.90;;;;;;5074336;28;20221;-85
2022/08/19 01:17:25;;;;;;;7.82;5.50;;;19.70;99.90;;;;;;5056800;28;20508;-85
2022/08/19 01:19:51;;;;;;;6.18;4.20;;;19.60;99.90;;;;;;5056412;28;20178;-85
2022/08/19 01:22:23;;;;;;;7.00;4.97;;;19.60;99.90;;;;;;5039748;28;20187;-85
2022/08/19 01:24:49;;;;;;;7.45;5.18;;;19.60;99.90;;;;;;5074403;28;20176;-85
2022/08/19 01:27:15;;;;;;;7.85;4.72;;;19.60;99.90;;;;;;5073983;28;20211;-85
2022/08/19 01:29:44;;;;;;;7.00;4.40;;;19.60;99.90;;;;;;5056377;28;20593;-85
2022/08/19 01:32:13;;;;;;;5.57;3.95;;;19.60;99.90;;;;;;5073992;28;20168;-85
2022/08/19 01:34:39;;;;;;;6.40;5.18;;;19.50;99.90;;;;;;5074116;28;20250;-85
2022/08/19 01:37:10;;;;;;;5.97;4.78;;;19.60;99.90;;;;;;5073887;28;20648;-85
2022/08/19 01:39:38;;;;;;;7.25;5.35;;;19.50;99.90;;;;;;5074401;28;20538;-85
2022/08/19 01:42:04;;;;;;;6.18;4.63;;;19.50;99.90;;;;;;5055932;28;20190;-84
2022/08/19 01:44:30;;;;;;;7.68;4.80;;;19.50;99.90;;;;;;5073389;28;20647;-85
2022/08/19 01:46:56;;;;;;;7.35;4.55;;;19.50;99.90;;;;;;5056060;28;20306;-85
2022/08/19 01:49:26;;;;;;;8.93;5.55;;;19.40;99.90;;;;;;5055773;28;20266;-85
2022/08/19 01:51:53;;;;;;;7.18;4.63;;;19.40;99.90;;;;;;5056173;28;20183;-85
2022/08/19 01:54:21;;;;;;;7.60;4.88;;;19.40;99.90;;;;;;5055784;28;20217;-85
2022/08/19 01:56:47;;;;;;;7.53;4.25;;;19.40;99.90;;;;;;5056021;28;20183;-85
2022/08/19 01:59:17;;;;;;;5.72;4.25;;;19.30;99.90;;;;;;5039226;28;20512;-85
2022/08/19 02:01:43;;;;;;;6.22;4.30;;;19.30;99.90;;;;;;5073801;28;20159;-85
2022/08/19 02:04:09;;;;;;;7.35;4.40;;;19.30;99.90;;;;;;5073450;28;20213;-85
2022/08/19 02:06:35;;;;;;;6.22;3.95;;;19.30;99.90;;;;;;5073347;28;20203;-85
2022/08/19 02:09:04;;;;;;;6.05;4.25;;;19.30;99.90;;;;;;5073580;28;20206;-87
2022/08/19 02:11:33;;;;;;;4.50;3.65;;;19.20;99.90;;;;;;5055613;28;20268;-85
2022/08/19 02:14:01;;;;;;;6.55;4.55;;;19.30;99.90;;;;;;5055658;28;20205;-85
2022/08/19 02:16:27;;;;;;;4.70;3.85;;;19.30;99.90;;;;;;5073581;28;20179;-84
2022/08/19 02:18:54;;;;;;;10.48;4.22;;;;;;;;;;5073351;28;20202;-85
2022/08/19 02:21:21;;;;;;;6.05;4.15;;;19.10;99.90;;;;;;5073249;28;20171;-85
2022/08/19 02:23:48;;;;;;;5.93;4.10;;;19.10;99.90;;;;;;5073401;28;20184;-85
2022/08/19 02:26:14;;;;;;;7.28;4.25;;;19.10;99.90;;;;;;5055055;28;20674;-85
2022/08/19 02:28:41;;;;;;;5.20;3.65;;;19.10;99.90;;;;;;5073324;28;20205;-85
2022/08/19 02:31:15;;;;;;;6.22;4.53;;;19.00;99.90;;;;;;5055268;28;20216;-85
2022/08/19 02:33:41;;;;;;;6.28;4.45;;;19.00;99.90;;;;;;5055476;28;20175;-85
2022/08/19 02:36:08;;;;;;;6.32;3.95;;;19.10;99.90;;;;;;5054898;28;20594;-85
2022/08/19 02:38:35;;;;;;;7.40;4.28;;;19.00;99.90;;;;;;5073037;28;20301;-85
2022/08/19 02:41:09;;;;;;;7.68;4.50;;;19.30;99.90;;;;;;5055394;28;20210;-85
2022/08/19 02:43:40;;;;;;;4.90;3.63;;;18.70;99.90;;;;;;5073358;28;20217;-84
2022/08/19 02:46:12;;;;;;;5.15;3.58;;;19.00;99.90;;;;;;5072641;28;20222;-88
2022/08/19 02:48:37;;;;;;;7.22;4.68;;;18.90;99.90;;;;;;5072868;28;20179;-85
2022/08/19 02:51:04;;;;;;;5.25;3.88;;;18.90;99.90;;;;;;5055120;28;20171;-84
2022/08/19 02:53:30;;;;;;;5.28;3.90;;;;;;;;;;5072572;28;20179;-86
2022/08/19 02:55:56;;;;;;;7.70;3.97;;;;;;;;;;5055237;28;20190;-85
2022/08/19 02:58:23;;;;;;;6.28;4.80;;;18.90;99.90;;;;;;5054734;28;20262;-85
2022/08/19 03:00:52;;;;;;;6.60;3.75;;;18.90;99.90;;;;;;5074076;28;20194;-87
2022/08/19 03:03:18;;;;;;;7.55;4.07;;;18.90;99.90;;;;;;5073425;28;20240;-87
2022/08/19 03:05:44;;;;;;;8.55;5.10;;;18.90;99.90;;;;;;5055261;28;20660;-87
2022/08/19 03:08:12;;;;;;;5.97;4.65;;;;;;;;;;5072921;28;20228;-86
2022/08/19 03:10:46;;;;;;;4.93;3.92;;;18.90;99.90;;;;;;5074182;28;20233;-86
2022/08/19 03:13:16;;;;;;;8.82;4.88;;;18.90;99.90;;;;;;5054608;28;20639;-86
2022/08/19 03:15:44;;;;;;;5.82;4.22;;;18.90;99.90;;;;;;5072498;28;20602;-85
2022/08/19 03:18:11;;;;;;;8.15;5.07;;;18.90;99.90;;;;;;5072043;28;20533;-86
2022/08/19 03:20:44;;;;;;;5.53;4.35;;;18.90;99.90;;;;;;5072670;28;20178;-85
2022/08/19 03:23:10;;;;;;;5.95;4.55;;;18.90;99.90;;;;;;5072475;28;20685;-85
2022/08/19 03:25:38;;;;;;;5.88;4.43;;;18.90;99.90;;;;;;5054768;28;20207;-85
2022/08/19 03:28:04;;;;;;;6.68;4.57;;;18.80;99.90;;;;;;5072695;28;20179;-84
2022/08/19 03:30:29;;;;;;;6.75;4.72;;;18.80;99.90;;;;;;5072139;28;20262;-84
2022/08/19 03:32:55;;;;;;;7.80;4.95;;;18.80;99.90;;;;;;5072606;28;20677;-85
2022/08/19 03:35:21;;;;;;;5.78;5.07;;;18.80;99.90;;;;;;5072343;28;20216;-84
2022/08/19 03:37:46;;;;;;;6.53;4.85;;;18.70;99.90;;;;;;5052243;28;20190;-83
2022/08/19 03:40:12;;;;;;;6.72;5.07;;;18.80;99.90;;;;;;5070946;28;20198;-85
2022/08/19 03:42:38;;;;;;;6.65;4.97;;;;;;;;;;5050735;28;20232;-87
2022/08/19 03:45:04;;;;;;;5.45;4.38;;;18.80;99.90;;;;;;5070463;28;20257;-85
2022/08/19 03:47:30;;;;;;;6.68;4.80;;;18.80;99.90;;;;;;5077443;28;20209;-85
2022/08/19 03:49:56;;;;;;;5.00;4.07;;;18.80;99.90;;;;;;5051117;28;20655;-86
2022/08/19 03:52:21;;;;;;;7.50;4.70;;;18.80;99.90;;;;;;5051611;28;20202;-86
2022/08/19 03:54:47;;;;;;;6.13;4.30;;;18.90;99.90;;;;;;5051806;28;20186;-86
2022/08/19 03:57:12;;;;;;;4.95;4.45;;;18.90;99.90;;;;;;5052281;28;20591;-85
2022/08/19 03:59:39;;;;;;;6.93;5.18;;;18.90;99.90;;;;;;5051914;28;20558;-86
2022/08/19 04:02:10;;;;;;;9.57;4.95;;;18.90;99.90;;;;;;5052441;28;20237;-86
2022/08/19 04:04:38;;;;;;;5.13;4.15;;;18.90;99.90;;;;;;5070480;28;21136;-86
2022/08/19 04:07:04;;;;;;;7.82;5.32;;;18.90;99.90;;;;;;5072390;28;20560;-84
2022/08/19 04:09:30;;;;;;;5.40;4.47;;;19.00;99.90;;;;;;5055738;28;20608;-86
2022/08/19 04:11:58;;;;;;;7.97;4.82;;;19.00;99.90;;;;;;5073895;28;20221;-86
2022/08/19 04:14:29;;;;;;;6.18;4.22;;;19.10;99.90;;;;;;5079072;28;20183;-85
2022/08/19 04:16:56;;;;;;;6.25;4.65;;;19.20;99.90;;;;;;5074558;28;20644;-86
2022/08/19 04:19:22;;;;;;;7.05;5.07;;;19.20;99.90;;;;;;5055706;28;20183;-86
2022/08/19 04:21:50;;;;;;;7.82;5.00;;;19.30;99.90;;;;;;5055247;28;20187;-86
2022/08/19 04:24:16;;;;;;;7.00;3.70;;;19.30;99.90;;;;;;5054502;28;20229;-87
2022/08/19 04:26:43;;;;;;;6.25;4.25;;;19.40;99.90;;;;;;5054158;28;20206;-86
2022/08/19 04:29:15;;;;;;;6.45;4.50;;;19.50;99.90;;;;;;5069521;28;20257;-85
2022/08/19 04:31:44;;;;;;;6.30;4.55;;;19.50;99.90;;;;;;5073136;28;20183;-85
2022/08/19 04:34:11;;;;;;;5.80;4.63;;;19.50;99.90;;;;;;5073329;28;20187;-83
2022/08/19 04:36:40;;;;;;;6.35;5.00;;;19.60;99.90;;;;;;5073189;28;20294;-84
2022/08/19 04:39:09;;;;;;;8.65;5.47;;;19.70;99.90;;;;;;5072814;28;20244;-84
2022/08/19 04:44:20;;;;;;;7.57;4.82;;;19.70;99.90;;;;;;5061442;28;20296;-86
2022/08/19 04:46:50;;;;;;;6.15;4.22;;;19.80;99.90;;;;;;5060862;28;20195;-86
2022/08/19 04:49:17;;;;;;;7.15;4.82;;;19.90;99.90;;;;;;5068117;28;20753;-85
2022/08/19 04:51:45;;;;;;;7.68;4.97;;;20.00;99.90;;;;;;5074270;28;20179;-85
2022/08/19 04:54:11;;;;;;;7.25;4.95;;;20.10;99.90;;;;;;5065450;28;20183;-87
2022/08/19 04:56:38;;;;;;;6.00;4.80;;;20.20;99.90;;;;;;5073039;28;20258;-87
2022/08/19 04:59:04;;;;;;;6.68;4.53;;;20.20;99.90;;;;;;5056313;28;20219;-86
2022/08/19 05:01:32;;;;;;;7.05;4.10;;;20.40;99.90;;;;;;5047832;28;20186;-86
2022/08/19 05:04:00;;;;;;;6.82;4.32;;;20.50;99.90;;;;;;5083498;28;20198;-85
2022/08/19 05:06:26;;;;;;;6.15;4.30;;;20.60;99.90;;;;;;5064173;28;20205;-87
2022/08/19 05:08:52;;;;;;;5.90;4.35;;;20.70;99.90;;;;;;5054708;28;20184;-86
2022/08/19 05:11:25;;;;;;;9.80;4.78;;;20.70;99.90;;;;;;5056522;28;20635;-87
2022/08/19 05:13:52;;;;;;;9.93;4.45;;;20.80;99.90;;;;;;5075118;28;20670;-88
2022/08/19 05:16:20;;;;;;;5.95;4.07;;;20.80;99.90;;;;;;5074815;28;20258;-88
2022/08/19 05:24:19;;;;;;;6.18;4.10;;;21.00;99.90;;;;;;5074501;28;20178;-87
2022/08/19 05:26:48;;;;;;;5.55;4.50;;;21.10;99.90;;;;;;5074373;28;20195;-88
2022/08/19 05:29:16;;;;;;;6.68;4.72;;;21.20;99.90;;;;;;5056888;28;20266;-88
2022/08/19 05:31:42;;;;;;;4.57;3.85;;;21.30;99.90;;;;;;5056572;28;20635;-89
2022/08/19 05:34:08;;;;;;;6.45;4.28;;;21.50;99.90;;;;;;5075079;28;20229;-88
2022/08/19 05:36:39;;;;;;;8.75;4.57;;;21.60;99.90;;;;;;5073524;28;20179;-87
2022/08/19 05:39:07;;;;;;;6.68;4.65;;;21.60;99.90;;;;;;5074793;28;20181;-89
2022/08/19 05:41:33;;;;;;;5.03;3.83;;;21.70;99.90;;;;;;5073409;28;20198;-88
2022/08/19 05:44:02;;;;;;;5.60;3.67;;;21.80;99.90;;;;;;5055878;28;20699;-88
2022/08/19 05:46:28;;;;;;;5.68;3.83;;;21.90;99.90;;;;;;5075096;28;20209;-87
2022/08/19 05:48:56;;;;;;;6.35;4.38;;;22.00;99.90;;;;;;5057071;28;20270;-88
2022/08/19 05:51:22;;;;;;;7.93;4.88;;;22.10;99.90;;;;;;5074087;28;20635;-87
2022/08/19 05:53:49;;;;;;;6.32;4.50;;;22.20;99.90;;;;;;5055925;28;20179;-87
2022/08/19 05:56:17;;;;;;;6.55;3.85;;;22.30;99.90;;;;;;5073536;28;20179;-88
2022/08/19 05:58:44;;;;;;;7.68;4.82;;;22.40;99.90;;;;;;5081530;28;20187;-87
2022/08/19 06:01:13;;;;;;;7.63;4.22;;;22.50;99.90;;;;;;5068838;28;20171;-87
2022/08/19 06:03:39;;;;;;;7.07;4.55;;;22.60;99.90;;;;;;5084659;28;20229;-86
2022/08/19 06:06:07;;;;;;;5.60;4.40;;;22.70;99.90;;;;;;5065414;28;20298;-88
2022/08/19 06:08:34;;;;;;;7.32;4.60;;;22.80;99.90;;;;;;5085024;28;20642;-87
2022/08/19 06:11:16;;;;;;;6.72;4.55;;;23.00;99.90;;;;;;5062484;28;20593;-88
2022/08/19 06:13:43;;;;;;;8.70;4.43;;;23.00;99.90;;;;;;5061036;28;20178;-89
2022/08/19 06:16:09;;;;;;;9.23;4.90;;;23.20;99.90;;;;;;5056192;28;20555;-88
2022/08/19 06:18:35;;;;;;;4.45;3.65;;;23.30;99.90;;;;;;5073664;28;20179;-89
2022/08/19 06:21:04;;;;;;;6.72;4.30;;;23.40;99.90;;;;;;5038996;28;20174;-90
2022/08/19 06:23:30;;;;;;;6.65;4.18;;;23.60;99.90;;;;;;5072433;28;20179;-89
2022/08/19 06:25:56;;;;;;;9.73;4.32;;;23.60;99.90;;;;;;5072729;28;20194;-88
2022/08/19 06:28:23;;;;;;;6.03;3.63;;;23.80;99.90;;;;;;5072419;28;20187;-88
2022/08/19 06:30:49;;;;;;;6.18;4.40;;;23.90;99.90;;;;;;5053723;28;20240;-89
2022/08/19 06:33:15;;;;;;;6.43;4.38;;;24.00;99.90;;;;;;5071722;28;20233;-88
2022/08/19 06:35:41;;;;;;;6.13;4.15;;;24.10;99.90;;;;;;5071766;28;20263;-88
2022/08/19 06:38:08;;;;;;;6.55;3.90;;;24.20;99.90;;;;;;5055005;28;20214;-88
2022/08/19 06:40:34;;;;;;;4.38;3.60;;;24.20;99.90;;;;;;5056075;28;20266;-88
2022/08/19 06:43:01;;;;;;;6.03;3.90;;;24.30;99.90;;;;;;5073998;28;20728;-88
2022/08/19 06:45:27;;;;;;;5.82;3.60;;;24.40;99.90;;;;;;5056483;28;20172;-88
2022/08/19 06:47:56;;;;;;;4.75;3.35;;;24.50;99.90;;;;;;5038590;28;20183;-88
2022/08/19 06:50:23;;;;;;;5.97;4.30;;;24.60;99.90;;;;;;5055372;28;20175;-88
2022/08/19 06:52:48;;;;;;;5.30;3.80;;;24.60;99.90;;;;;;5038308;28;20175;-87
2022/08/19 06:55:15;;;;;;;5.78;4.07;;;24.70;99.90;;;;;;5073352;28;20186;-88
2022/08/19 06:57:42;;;;;;;4.22;3.20;;;24.80;99.90;;;;;;5023052;28;20632;-88
2022/08/19 07:00:13;;;;;;;5.32;3.70;;;24.90;99.90;;;;;;5052796;28;20179;-88
2022/08/19 07:02:41;;;;;;;7.72;3.70;;;25.00;99.90;;;;;;5053334;28;20162;-89
2022/08/19 07:05:07;;;;;;;7.72;4.07;;;25.00;99.90;;;;;;5053544;28;20314;-88
2022/08/19 07:07:34;;;;;;;5.55;3.88;;;25.20;99.90;;;;;;5035929;28;20298;-88
2022/08/19 07:10:00;;;;;;;6.68;4.32;;;25.30;99.90;;;;;;5053608;28;20631;-88
2022/08/19 07:12:34;;;;;;;6.22;4.45;;;25.40;99.90;;;;;;5053413;28;20644;-88
2022/08/19 07:15:00;;;;;;;5.40;3.83;;;25.50;99.90;;;;;;5053217;28;20283;-88
2022/08/19 07:17:27;;;;;;;5.72;3.35;;;25.60;99.90;;;;;;5053433;28;20245;-88
2022/08/19 07:19:53;;;;;;;5.13;3.28;;;25.70;99.90;;;;;;5053012;28;20199;-88
2022/08/19 07:22:20;;;;;;;5.60;3.90;;;25.80;99.90;;;;;;5019440;28;20280;-88
2022/08/19 07:24:46;;;;;;;7.18;3.55;;;25.90;99.90;;;;;;5052944;28;20175;-88
2022/08/19 07:27:14;;;;;;;7.88;4.20;;;26.10;99.90;;;;;;5052946;28;20207;-88
2022/08/19 07:29:40;;;;;;;6.25;3.83;;;26.20;99.90;;;;;;5052963;28;20637;-87
2022/08/19 07:32:06;;;;;;;5.55;3.50;;;26.30;99.90;;;;;;5035181;28;20168;-87
2022/08/19 07:34:36;;;;;;;5.25;4.13;;;26.40;99.90;;;;;;5035211;28;20271;-87
2022/08/19 07:37:06;;;;;;;3.75;3.38;;;26.40;99.90;;;;;;5052653;28;20168;-87
2022/08/19 07:39:34;;;;;;;3.97;3.20;;;26.60;99.90;;;;;;5035509;28;20183;-88
2022/08/19 07:42:04;;;;;;;4.60;3.55;;;26.70;99.90;;;;;;5054588;28;20246;-88
2022/08/19 07:44:29;;;;;;;7.55;3.00;;;26.80;99.90;;;;;;5040180;28;20215;-88
2022/08/19 07:46:57;;;;;;;3.80;3.13;;;26.80;99.90;;;;;;5056220;28;20247;-90
2022/08/19 07:49:24;;;;;;;6.97;3.50;;;26.90;99.90;;;;;;5056871;28;20227;-89
2022/08/19 07:52:01;;;;;;;4.25;2.97;;;27.00;99.90;;;;;;5056378;28;20200;-88
2022/08/19 07:54:29;;;;;;;5.82;4.00;;;27.10;99.90;;;;;;5056480;28;20531;-89
2022/08/19 07:56:55;;;;;;;4.72;3.30;;;27.20;99.90;;;;;;5038063;28;20180;-89
2022/08/19 07:59:21;;;;;;;6.45;4.07;;;27.30;99.90;;;;;;5056277;28;20584;-89
2022/08/19 08:01:47;;;;;;;3.67;3.10;;;27.40;99.90;;;;;;5056627;28;20656;-87
2022/08/19 08:09:43;;;;;;;5.00;3.13;;;27.70;99.90;;;;;;5056753;28;20261;-90
2022/08/19 08:12:21;;;;;;;4.70;3.35;;;27.70;99.90;;;;;;5056546;28;20206;-90
2022/08/19 08:14:51;;;;;;;4.38;3.05;;;27.70;99.90;;;;;;5056207;28;20580;-89
2022/08/19 08:17:19;;;;;;;3.60;2.75;;;27.80;99.90;;;;;;5061472;28;20176;-89
2022/08/19 08:19:46;;;;;;;7.22;3.05;;;27.90;99.90;;;;;;5057594;28;20259;-89
2022/08/19 08:25:04;;;;;;;3.35;2.22;;;28.00;99.90;;;;;;5075406;28;20189;-86
2022/08/19 08:27:30;;;;;;;3.25;2.70;;;28.10;99.90;;;;;;5058056;28;20199;-88
2022/08/19 08:29:57;;;;;;;4.22;3.10;;;28.10;99.90;;;;;;5041224;28;20191;-88
2022/08/19 08:32:23;;;;;;;4.35;2.75;;;28.20;99.90;;;;;;5074964;28;20205;-88
2022/08/19 08:34:49;;;;;;;5.38;2.70;;;28.30;99.90;;;;;;5075786;28;20183;-89
2022/08/19 08:37:14;;;;;;;3.40;2.50;;;28.40;99.90;;;;;;5075906;28;20584;-89
2022/08/19 08:39:40;;;;;;;4.30;2.90;;;28.50;99.90;;;;;;5079216;28;20182;-86
2022/08/19 08:42:16;;;;;;;4.40;2.28;;;28.50;99.90;;;;;;5075830;28;20175;-87
2022/08/19 08:45:14;;;;;;;3.42;2.28;;;28.50;99.90;;;;;;5076403;28;20642;-86
2022/08/19 08:47:43;;;;;;;2.80;2.30;;;28.60;99.90;;;;;;5078217;28;20661;-86
2022/08/19 08:50:35;;;;;;;5.63;2.50;;;28.70;99.90;;;;;;5088326;28;20182;-86
2022/08/19 08:53:04;;;;;;;3.88;2.20;;;28.80;99.90;;;;;;5091971;28;20205;-87
2022/08/19 08:55:30;;;;;;;5.03;2.85;;;28.80;99.90;;;;;;5095020;28;20175;-87
2022/08/19 08:58:02;;;;;;;6.78;2.33;;;28.90;99.90;;;;;;5068416;28;20229;-87
2022/08/19 09:00:33;;;;;;;6.03;2.45;;;28.90;99.90;;;;;;5088278;28;20172;-88
2022/08/19 09:03:05;;;;;;;4.70;2.88;;;29.00;99.90;;;;;;5066598;28;20254;-89
2022/08/19 09:05:50;;;;;;;5.32;2.45;;;29.10;99.90;;;;;;5063385;28;20265;-88
2022/08/19 09:08:45;;;;;;;3.78;2.33;;;29.20;99.90;;;;;;5085968;28;20160;-90
2022/08/19 09:11:21;;;;;;;3.70;2.38;;;29.20;99.90;;;;;;5080018;28;20256;-86
2022/08/19 09:14:02;;;;;;;3.75;2.50;;;29.20;99.90;;;;;;5080506;28;20178;-89
2022/08/19 09:16:30;;;;;;;7.28;2.85;;;29.30;99.90;;;;;;5076965;28;20178;-87
2022/08/19 09:19:00;;;;;;;2.88;2.10;;;29.40;99.90;;;;;;5057082;28;20608;-88
2022/08/19 09:21:27;;;;;;;3.40;2.28;;;29.50;99.90;;;;;;5057152;28;20175;-86
2022/08/19 09:23:53;;;;;;;9.48;2.45;;;29.60;99.90;;;;;;5057722;28;20183;-87
2022/08/19 09:26:22;;;;;;;7.28;2.92;;;29.60;99.90;;;;;;5056715;28;20241;-86
2022/08/19 09:28:50;;;;;;;2.63;2.28;;;29.80;99.90;;;;;;5073481;28;20182;-87
2022/08/19 09:31:19;;;;;;;5.63;2.92;;;29.70;99.90;;;;;;5073199;28;20176;-87
2022/08/19 09:33:46;;;;;;;5.13;3.03;;;29.90;99.90;;;;;;5073864;28;20221;-87
2022/08/19 09:36:14;;;;;;;3.88;2.85;;;30.00;99.90;;;;;;5073518;28;20199;-87
2022/08/19 09:38:41;;;;;;;2.75;2.20;;;30.00;99.90;;;;;;5072982;28;20175;-86
2022/08/19 09:41:11;;;;;;;2.38;2.15;;;30.10;99.60;;;;;;5073197;28;20624;-88
2022/08/19 09:43:36;;;;;;;3.80;2.85;;;30.20;98.40;;;;;;5073857;28;20233;-92
2022/08/19 09:46:05;;;;;;;4.20;2.35;;;30.20;99.80;;;;;;5055735;28;20207;-87
2022/08/19 09:48:32;;;;;;;2.45;2.25;;;30.40;98.70;;;;;;5073166;28;20260;-87
2022/08/19 09:51:12;;;;;;;3.58;2.55;;;30.40;96.10;;;;;;5074073;28;20250;-87
2022/08/19 09:53:39;;;;;;;3.88;1.83;;;30.40;94.50;;;;;;5074812;28;20174;-88
2022/08/19 09:56:05;;;;;;;2.05;1.70;;;30.50;95.10;;;;;;5075419;28;20709;-88
2022/08/19 09:58:32;;;;;;;10.32;2.13;;;30.70;93.00;;;;;;5055698;28;20187;-88
2022/08/19 10:00:59;;;;;;;3.42;2.38;;;30.70;92.10;;;;;;5074042;28;20175;-88
2022/08/19 10:03:25;;;;;;;3.88;2.25;;;30.70;92.80;;;;;;5074053;28;20257;-87
2022/08/19 10:05:52;;;;;;;2.30;1.98;;;30.70;93.40;;;;;;5073668;28;20678;-88
2022/08/19 10:08:30;;;;;;;2.33;1.77;;;30.90;93.80;;;;;;5055284;28;20179;-89
2022/08/19 10:10:57;;;;;;;3.53;2.13;;;31.00;90.90;;;;;;5055588;28;20581;-87
2022/08/19 10:13:25;;;;;;;2.58;1.58;;;31.00;90.00;;;;;;5072158;28;20651;-87
2022/08/19 10:16:01;;;;;;;2.42;1.90;;;31.10;88.90;;;;;;5073727;28;20174;-87
2022/08/19 10:18:27;;;;;;;2.80;2.30;;;31.20;91.50;;;;;;5073522;28;20191;-88
2022/08/19 10:21:07;;;;;;;2.97;1.83;;;31.30;86.60;;;;;;5077719;28;20182;-89
2022/08/19 10:23:33;;;;;;;2.45;2.20;;;31.40;87.10;;;;;;5057096;28;20666;-87
2022/08/19 10:26:00;;;;;;;3.67;2.28;;;31.40;85.40;;;;;;5038906;28;20231;-85
2022/08/19 10:28:26;;;;;;;20.52;2.92;;;31.40;86.50;;;;;;5074075;28;20636;-87
2022/08/19 10:30:52;;;;;;;2.65;2.38;;;31.40;84.10;;;;;;5073890;28;20309;-87
2022/08/19 10:33:18;;;;;;;2.30;1.95;;;31.50;82.20;;;;;;5056359;28;20229;-84
2022/08/19 10:35:46;;;;;;;3.55;2.45;;;31.60;82.40;;;;;;5074196;28;20179;-87
2022/08/19 10:38:12;;;;;;;4.68;2.17;;;31.90;81.60;;;;;;5073992;28;20191;-86
2022/08/19 10:40:37;;;;;;;5.00;1.90;;;31.90;77.50;;;;;;5059659;28;20183;-87
2022/08/19 10:43:03;;;;;;;2.78;2.25;;;31.90;77.40;;;;;;5082041;28;20227;-87
2022/08/19 10:45:29;;;;;;;2.53;2.25;;;31.90;79.50;;;;;;5084237;28;20187;-87
2022/08/19 10:47:55;;;;;;;2.42;2.20;;;32.00;77.30;;;;;;5082180;28;20270;-86
2022/08/19 10:53:08;;;;;;;4.88;1.85;;;32.20;78.20;;;;;;5076577;28;20175;-88
2022/08/19 10:58:23;;;;;;;2.58;1.90;;;32.40;79.80;;;;;;5078069;28;20182;-86
2022/08/19 11:00:53;;;;;;;5.20;1.95;;;32.40;74.10;;;;;;5076133;28;20159;-86
2022/08/19 11:03:19;;;;;;;7.97;2.50;;;32.40;76.90;;;;;;5071855;28;20190;-87
2022/08/19 11:05:45;;;;;;;2.53;1.92;;;32.40;75.60;;;;;;5054902;28;20205;-87
2022/08/19 11:08:11;;;;;;;5.00;3.17;;;32.40;78.50;;;;;;5071661;28;20534;-88
2022/08/19 11:10:40;;;;;;;4.10;2.35;;;32.30;76.40;;;;;;5071864;28;20220;-88
2022/08/19 11:13:06;;;;;;;2.33;1.98;;;32.30;75.70;;;;;;5055247;28;20217;-87
2022/08/19 11:15:33;;;;;;;3.35;2.35;;;32.40;80.40;;;;;;5039243;28;20195;-87
2022/08/19 11:17:58;;;;;;;2.85;1.92;;;32.40;75.50;;;;;;5059187;28;20228;-86
2022/08/19 11:20:25;;;;;;;4.60;2.45;;;32.30;73.50;;;;;;5075772;28;20270;-87
2022/08/19 11:22:53;;;;;;;2.78;2.00;;;32.20;73.30;;;;;;5041709;28;20215;-87
2022/08/19 11:25:19;;;;;;;2.42;2.22;;;32.20;73.10;;;;;;5058285;28;20526;-84
2022/08/19 11:27:46;;;;;;;4.32;2.00;;;32.20;76.20;;;;;;5058474;28;20229;-86
2022/08/19 11:30:13;;;;;;;5.30;1.92;;;32.20;74.60;;;;;;5058257;28;20187;-89
2022/08/19 11:32:42;;;;;;;3.53;2.28;;;32.10;73.10;;;;;;5076109;28;20221;-85
2022/08/19 11:35:08;;;;;;;3.35;2.17;;;32.10;72.50;;;;;;5058295;28;20175;-88
2022/08/19 11:37:37;;;;;;;3.28;2.65;;;32.10;73.80;;;;;;5041298;28;20223;-86
2022/08/19 11:40:04;;;;;;;2.60;2.25;;;32.10;75.10;;;;;;5073254;28;20187;-85
2022/08/19 11:45:14;;;;;;;3.00;2.55;;;31.90;73.70;;;;;;5075561;28;20190;-88
2022/08/19 11:47:39;;;;;;;3.97;2.33;;;32.00;75.20;;;;;;5076088;28;20207;-86
2022/08/19 11:50:05;;;;;;;2.65;2.25;;;32.00;74.70;;;;;;5058134;28;20215;-86
2022/08/19 11:52:31;;;;;;;3.15;2.35;;;32.00;73.30;;;;;;5057511;28;20197;-86
2022/08/19 11:54:57;;;;;;;3.88;2.60;;;32.00;74.40;;;;;;5074056;28;20198;-85
2022/08/19 11:57:22;;;;;;;2.90;2.20;;;32.00;73.70;;;;;;5057051;28;20218;-86
2022/08/19 11:59:50;;;;;;;4.07;2.22;;;32.20;73.90;;;;;;5057469;28;20171;-85
2022/08/19 12:02:15;;;;;;;3.15;2.25;;;32.10;72.00;;;;;;5075419;28;20194;-86
2022/08/19 12:04:41;;;;;;;3.70;2.22;;;32.20;70.60;;;;;;5057362;28;20175;-85
2022/08/19 12:07:06;;;;;;;2.42;2.00;;;32.10;72.00;;;;;;5056377;28;20578;-85
2022/08/19 12:09:34;;;;;;;2.55;1.75;;;32.20;70.10;;;;;;5057079;28;20185;-86
2022/08/19 12:12:01;;;;;;;2.60;2.20;;;32.10;71.00;;;;;;5053564;28;20652;-88
2022/08/19 12:14:29;;;;;;;4.43;2.30;;;32.20;72.90;;;;;;5056099;28;20199;-86
2022/08/19 12:16:56;;;;;;;2.42;2.13;;;32.10;70.90;;;;;;5055713;28;20262;-85
2022/08/19 12:19:21;;;;;;;5.60;1.90;;;32.20;71.10;;;;;;5055299;28;20203;-87
2022/08/19 12:21:47;;;;;;;2.58;2.33;;;32.20;70.60;;;;;;5073499;28;20666;-87
2022/08/19 12:24:13;;;;;;;2.08;1.80;;;32.30;72.40;;;;;;5072925;28;20663;-86
2022/08/19 12:26:38;;;;;;;7.15;2.58;;;32.20;73.10;;;;;;5054712;28;20207;-86
2022/08/19 12:29:04;;;;;;;3.28;2.00;;;32.20;73.70;;;;;;5056362;28;20178;-85
2022/08/19 12:31:30;;;;;;;4.15;2.78;;;32.30;71.70;;;;;;5078839;28;20183;-86
2022/08/19 12:33:56;;;;;;;2.60;2.40;;;32.20;71.30;;;;;;5087063;28;20190;-85
2022/08/19 12:36:22;;;;;;;2.72;2.13;;;32.20;72.70;;;;;;5087642;28;20197;-86
2022/08/19 12:38:48;;;;;;;3.47;2.30;;;32.30;72.60;;;;;;5053979;28;20171;-87
2022/08/19 12:41:18;;;;;;;3.22;2.25;;;32.40;71.90;;;;;;5056300;28;20253;-85
2022/08/19 12:43:43;;;;;;;3.60;2.08;;;32.40;72.70;;;;;;5075787;28;20227;-88
2022/08/19 12:46:10;;;;;;;5.25;2.40;;;32.60;74.70;;;;;;5080219;28;20194;-87
2022/08/19 12:48:36;;;;;;;3.08;2.20;;;32.60;72.10;;;;;;5088387;28;20213;-87
2022/08/19 12:51:11;;;;;;;6.07;2.15;;;32.60;72.50;;;;;;5088163;28;20171;-86
2022/08/19 12:53:38;;;;;;;3.67;2.00;;;32.60;71.50;;;;;;5085787;28;20174;-87
2022/08/19 12:56:04;;;;;;;3.28;2.30;;;32.50;74.10;;;;;;5071312;28;20183;-87
2022/08/19 12:58:30;;;;;;;3.03;2.33;;;32.40;72.20;;;;;;5084332;28;20171;-87
2022/08/19 13:00:56;;;;;;;2.58;1.92;;;32.40;71.70;;;;;;5076618;28;20175;-87
2022/08/19 13:03:27;;;;;;;3.58;2.28;;;32.50;73.00;;;;;;5057395;28;20257;-90
2022/08/19 13:05:52;;;;;;;4.30;3.05;;;32.50;71.40;;;;;;5075114;28;20191;-88
2022/08/19 13:08:18;;;;;;;2.90;2.10;;;32.50;71.00;;;;;;5074673;28;20233;-88
2022/08/19 13:10:43;;;;;;;2.70;2.05;;;32.40;70.90;;;;;;5039615;28;20572;-88
2022/08/19 13:13:09;;;;;;;3.22;2.40;;;32.30;71.40;;;;;;5041996;28;20183;-90
2022/08/19 13:15:39;;;;;;;2.35;1.80;;;32.10;70.20;;;;;;5089568;28;20175;-89